createdAt,value
2023-01-31T00:03:58.499Z,0.0
2023-01-31T00:08:55.870Z,0.0
2023-01-31T00:14:12.276Z,0.0
2023-01-31T00:19:18.642Z,0.0
2023-01-31T00:24:25.134Z,0.0
2023-01-31T00:29:31.628Z,0.0
2023-01-31T00:34:38.248Z,0.0
2023-01-31T00:39:45.953Z,0.0
2023-01-31T00:44:52.358Z,0.0
2023-01-31T00:49:58.891Z,0.0
2023-01-31T00:55:05.293Z,0.0
2023-01-31T01:00:11.709Z,0.0
2023-01-31T01:05:18.555Z,0.0
2023-01-31T01:10:24.545Z,0.0
2023-01-31T01:15:30.937Z,0.0
2023-01-31T01:20:37.312Z,0.0
2023-01-31T01:25:43.802Z,0.0
2023-01-31T01:31:18.028Z,0.0
2023-01-31T01:36:00.148Z,0.0
2023-01-31T01:40:56.511Z,0.0
2023-01-31T01:46:12.962Z,0.0
2023-01-31T01:51:20.934Z,0.0
2023-01-31T01:56:27.371Z,0.0
2023-01-31T02:02:08.877Z,0.0
2023-01-31T02:07:16.335Z,0.0
2023-01-31T02:12:24.267Z,0.0
2023-01-31T02:17:30.629Z,0.0
2023-01-31T02:22:40.607Z,0.0
2023-01-31T02:27:47.090Z,0.0
2023-01-31T02:32:53.567Z,0.0
2023-01-31T02:37:59.982Z,0.0
2023-01-31T02:43:06.366Z,0.0
2023-01-31T02:48:12.746Z,0.0
2023-01-31T02:53:19.167Z,0.0
2023-01-31T02:58:14.507Z,0.0
2023-01-31T03:03:31.973Z,0.0
2023-01-31T03:08:38.545Z,0.0
2023-01-31T03:13:45.049Z,0.0
2023-01-31T03:18:51.418Z,0.0
2023-01-31T03:23:57.813Z,0.0
2023-01-31T03:29:04.188Z,0.0
2023-01-31T03:34:10.537Z,0.0
2023-01-31T03:39:17.655Z,0.0
2023-01-31T03:44:23.375Z,0.0
2023-01-31T03:49:29.829Z,0.0
2023-01-31T03:54:36.225Z,0.0
2023-01-31T03:59:32.598Z,0.0
2023-01-31T04:04:48.955Z,0.0
2023-01-31T04:09:55.358Z,0.0
2023-01-31T04:15:01.722Z,0.0
2023-01-31T04:20:08.193Z,0.0
2023-01-31T04:25:04.593Z,0.0
2023-01-31T04:30:21.031Z,0.0
2023-01-31T04:35:16.343Z,0.0
2023-01-31T04:41:18.856Z,0.0
2023-01-31T04:46:16.219Z,0.0
2023-01-31T04:51:33.013Z,0.0
2023-01-31T04:56:39.097Z,0.0
2023-01-31T05:01:45.558Z,0.0
2023-01-31T05:06:52.056Z,0.0
2023-01-31T05:12:43.173Z,0.0
2023-01-31T05:17:05.785Z,0.0
2023-01-31T05:22:11.840Z,0.0
2023-01-31T05:27:18.225Z,0.0
2023-01-31T05:32:24.630Z,0.0
2023-01-31T05:37:55.038Z,0.0
2023-01-31T05:42:37.341Z,0.0
2023-01-31T05:47:43.753Z,0.0
2023-01-31T05:52:50.123Z,0.0
2023-01-31T05:57:56.502Z,0.0
2023-01-31T06:03:03.199Z,0.0
2023-01-31T06:08:09.490Z,0.0
2023-01-31T06:13:59.973Z,0.0
2023-01-31T06:18:22.311Z,0.0
2023-01-31T06:23:28.665Z,0.0
2023-01-31T06:28:35.060Z,0.0
2023-01-31T06:33:47.397Z,0.0
2023-01-31T06:39:08.449Z,0.0
2023-01-31T06:44:15.828Z,0.0
2023-01-31T06:49:02.179Z,0.0
2023-01-31T06:54:49.643Z,0.0
2023-01-31T06:59:57.051Z,0.0
2023-01-31T07:05:03.596Z,0.0
2023-01-31T07:10:09.841Z,0.0
2023-01-31T07:15:06.378Z,5.0
2023-01-31T07:20:22.954Z,5.0
2023-01-31T07:25:30.103Z,5.0
2023-01-31T07:30:39.895Z,10.0
2023-01-31T07:35:42.272Z,5.0
2023-01-31T07:40:49.295Z,5.0
2023-01-31T07:46:19.117Z,15.0
2023-01-31T07:51:29.027Z,15.0
2023-01-31T07:56:11.373Z,25.0
2023-01-31T08:01:07.802Z,20.0
2023-01-31T08:06:24.129Z,25.0
2023-01-31T08:11:31.899Z,25.0
2023-01-31T08:16:38.062Z,35.0
2023-01-31T08:21:44.865Z,35.0
2023-01-31T08:26:50.906Z,35.0
2023-01-31T08:31:57.396Z,30.0
2023-01-31T08:37:27.671Z,20.0
2023-01-31T08:42:10.031Z,40.0
2023-01-31T08:47:16.455Z,75.0
2023-01-31T08:52:12.813Z,45.0
2023-01-31T08:57:19.222Z,65.0
2023-01-31T09:02:25.597Z,35.0
2023-01-31T09:07:41.969Z,55.0
2023-01-31T09:13:12.429Z,30.0
2023-01-31T09:17:54.721Z,70.0
2023-01-31T09:23:01.264Z,45.0
2023-01-31T09:28:07.643Z,45.0
2023-01-31T09:33:14.153Z,45.0
2023-01-31T09:38:20.516Z,45.0
2023-01-31T09:43:46.977Z,40.0
2023-01-31T09:48:33.340Z,45.0
2023-01-31T09:53:39.696Z,50.0
2023-01-31T09:58:46.096Z,40.0
2023-01-31T10:03:52.534Z,45.0
2023-01-31T10:08:58.864Z,25.0
2023-01-31T10:14:05.260Z,30.0
2023-01-31T10:19:11.650Z,50.0
2023-01-31T10:24:18.078Z,45.0
2023-01-31T10:29:24.563Z,65.0
2023-01-31T10:34:31.364Z,85.0
2023-01-31T10:39:37.350Z,90.0
2023-01-31T10:44:43.723Z,135.0
2023-01-31T10:49:50.175Z,105.0
2023-01-31T10:54:57.088Z,80.0
2023-01-31T11:00:26.535Z,80.0
2023-01-31T11:05:08.950Z,80.0
2023-01-31T11:10:16.548Z,85.0
2023-01-31T11:15:22.932Z,60.0
2023-01-31T11:20:29.335Z,45.0
2023-01-31T11:25:35.696Z,90.0
2023-01-31T11:30:45.670Z,70.0
2023-01-31T11:35:52.087Z,45.0
2023-01-31T11:40:58.387Z,60.0
2023-01-31T11:46:04.785Z,50.0
2023-01-31T11:51:11.169Z,55.0
2023-01-31T11:56:17.523Z,45.0
2023-01-31T12:01:23.978Z,60.0
2023-01-31T12:06:30.467Z,60.0
2023-01-31T12:11:36.831Z,55.0
2023-01-31T12:16:43.322Z,45.0
2023-01-31T12:21:49.632Z,70.0
2023-01-31T12:26:56.046Z,60.0
2023-01-31T12:32:26.422Z,45.0
2023-01-31T12:37:32.829Z,40.0
2023-01-31T12:42:35.178Z,35.0
2023-01-31T12:47:21.547Z,25.0
2023-01-31T12:52:28.036Z,25.0
2023-01-31T12:57:54.482Z,25.0
2023-01-31T13:02:40.885Z,30.0
2023-01-31T13:09:59.307Z,30.0
2023-01-31T13:13:13.577Z,30.0
2023-01-31T13:18:23.928Z,30.0
2023-01-31T13:23:50.375Z,35.0
2023-01-31T13:28:36.756Z,40.0
2023-01-31T13:33:19.079Z,55.0
2023-01-31T13:38:15.442Z,60.0
2023-01-31T13:43:31.828Z,70.0
2023-01-31T13:48:38.232Z,40.0
2023-01-31T13:54:08.631Z,65.0
2023-01-31T13:58:50.959Z,40.0
2023-01-31T14:03:57.367Z,45.0
2023-01-31T14:09:03.711Z,50.0
2023-01-31T14:14:10.188Z,125.0
2023-01-31T14:19:16.580Z,140.0
2023-01-31T14:24:22.951Z,80.0
2023-01-31T14:29:29.338Z,55.0
2023-01-31T14:34:55.771Z,125.0
2023-01-31T14:40:44.418Z,45.0
2023-01-31T14:44:48.580Z,50.0
2023-01-31T14:49:54.969Z,20.0
2023-01-31T14:55:01.490Z,10.0
2023-01-31T15:00:31.987Z,15.0
2023-01-31T15:05:34.478Z,25.0
2023-01-31T15:10:10.846Z,30.0
2023-01-31T15:15:27.225Z,25.0
2023-01-31T15:20:33.599Z,60.0
2023-01-31T15:26:04.070Z,30.0
2023-01-31T15:30:46.444Z,20.0
2023-01-31T15:35:52.738Z,10.0
2023-01-31T15:40:59.257Z,5.0
2023-01-31T15:46:05.815Z,5.0
2023-01-31T15:51:12.127Z,5.0
2023-01-31T15:56:08.484Z,5.0
2023-01-31T16:01:24.955Z,5.0
2023-01-31T16:06:31.255Z,5.0
2023-01-31T16:12:01.646Z,0.0
2023-01-31T16:16:44.077Z,0.0
2023-01-31T16:21:50.431Z,0.0
2023-01-31T16:26:56.830Z,0.0
2023-01-31T16:32:03.228Z,0.0
2023-01-31T16:37:08.599Z,0.0
2023-01-31T16:42:15.969Z,0.0
2023-01-31T16:47:22.486Z,0.0
2023-01-31T16:52:28.958Z,0.0
2023-01-31T16:57:37.597Z,0.0
2023-01-31T17:02:55.915Z,0.0
2023-01-31T17:07:38.179Z,0.0
2023-01-31T17:12:54.670Z,0.0
2023-01-31T17:18:01.205Z,0.0
2023-01-31T17:23:07.851Z,0.0
2023-01-31T17:28:14.272Z,0.0
2023-01-31T17:33:20.674Z,0.0
2023-01-31T17:38:27.025Z,0.0
2023-01-31T17:43:33.399Z,0.0
2023-01-31T17:48:29.831Z,0.0
2023-01-31T17:53:49.939Z,0.0
2023-01-31T17:58:52.788Z,0.0
2023-01-31T18:03:59.225Z,0.0
2023-01-31T18:23:22.517Z,0.0
2023-01-31T18:28:29.893Z,0.0
2023-01-31T18:33:56.326Z,0.0
2023-01-31T18:39:06.721Z,0.0
2023-01-31T18:44:13.146Z,0.0
2023-01-31T18:48:55.469Z,0.0
2023-01-31T18:54:01.902Z,0.0
2023-01-31T18:59:52.423Z,0.0
2023-01-31T19:04:16.234Z,0.0
2023-01-31T19:09:22.657Z,0.0
2023-01-31T19:14:29.067Z,0.0
2023-01-31T19:20:00.566Z,0.0
2023-01-31T19:25:06.946Z,0.0
2023-01-31T19:30:33.658Z,0.0
2023-01-31T19:35:20.511Z,0.0
2023-01-31T19:40:46.687Z,0.0
2023-01-31T19:45:33.075Z,0.0
2023-01-31T19:50:15.356Z,0.0
2023-01-31T19:55:22.132Z,0.0
2023-01-31T20:00:28.257Z,0.0
2023-01-31T20:10:40.017Z,0.0
2023-01-31T20:11:54.127Z,0.0
2023-01-31T20:15:48.456Z,0.0
2023-01-31T20:21:14.964Z,0.0
2023-01-31T20:26:21.444Z,0.0
2023-01-31T20:31:51.835Z,0.0
2023-01-31T20:36:14.079Z,0.0
2023-01-31T20:42:04.584Z,0.0
2023-01-31T20:46:51.494Z,0.0
2023-01-31T20:51:53.901Z,0.0
2023-01-31T20:56:40.266Z,0.0
2023-01-31T21:01:46.832Z,0.0
2023-01-31T21:06:53.131Z,0.0
2023-01-31T21:11:59.439Z,0.0
2023-01-31T21:17:05.816Z,0.0
2023-01-31T21:22:12.178Z,0.0
2023-01-31T21:27:18.639Z,0.0
2023-01-31T21:32:24.953Z,0.0
2023-01-31T21:38:55.573Z,0.0
2023-01-31T21:45:26.117Z,0.0
2023-01-31T21:48:28.284Z,0.0
2023-01-31T21:53:10.587Z,0.0
2023-01-31T22:03:02.405Z,0.0
2023-01-31T22:08:29.829Z,0.0
2023-01-31T22:13:16.114Z,0.0
2023-01-31T22:18:22.590Z,0.0
2023-01-31T22:24:13.198Z,0.0
2023-01-31T22:28:36.610Z,0.0
2023-01-31T22:33:42.983Z,0.0
2023-01-31T22:38:49.374Z,0.0
2023-01-31T22:43:55.785Z,0.0
2023-01-31T22:49:02.209Z,0.0
2023-01-31T22:54:08.587Z,0.0
2023-01-31T22:59:04.995Z,0.0
2023-01-31T23:50:24.383Z,0.0
2023-01-31T23:55:31.517Z,0.0
